createdAt,value
2018-07-24T00:01:25.610Z,99.90
2018-07-24T00:03:54.830Z,99.90
2018-07-24T00:06:24.392Z,99.90
2018-07-24T00:08:53.664Z,99.90
2018-07-24T00:11:23.062Z,99.90
2018-07-24T00:13:52.340Z,99.90
2018-07-24T00:16:21.619Z,99.90
2018-07-24T00:18:50.903Z,99.90
2018-07-24T00:21:20.134Z,99.90
2018-07-24T00:23:49.414Z,99.90
2018-07-24T00:26:18.669Z,99.90
2018-07-24T00:28:47.902Z,99.90
2018-07-24T00:31:17.286Z,99.90
2018-07-24T00:33:46.513Z,99.90
2018-07-24T00:36:15.853Z,99.90
2018-07-24T00:38:45.278Z,99.90
2018-07-24T00:41:14.553Z,99.90
2018-07-24T00:43:43.847Z,99.90
2018-07-24T00:46:13.177Z,99.90
2018-07-24T00:48:42.612Z,99.90
2018-07-24T00:51:11.872Z,99.90
2018-07-24T00:53:41.117Z,99.90
2018-07-24T00:56:10.328Z,99.90
2018-07-24T00:58:39.594Z,99.90
2018-07-24T01:01:08.868Z,99.90
2018-07-24T01:03:38.084Z,99.90
2018-07-24T01:06:07.321Z,99.90
2018-07-24T01:08:36.602Z,99.90
2018-07-24T01:11:05.818Z,99.90
2018-07-24T01:13:35.051Z,99.90
2018-07-24T01:16:04.332Z,99.90
2018-07-24T01:18:33.571Z,99.90
2018-07-24T01:21:02.856Z,99.90
2018-07-24T01:23:32.139Z,99.90
2018-07-24T01:26:01.445Z,99.90
2018-07-24T01:28:30.685Z,99.90
2018-07-24T01:30:59.941Z,99.90
2018-07-24T01:33:29.179Z,99.90
2018-07-24T01:35:58.439Z,99.90
2018-07-24T01:38:27.678Z,99.90
2018-07-24T01:40:56.917Z,99.90
2018-07-24T01:43:26.165Z,99.90
2018-07-24T01:45:55.396Z,99.90
2018-07-24T01:48:24.634Z,99.90
2018-07-24T01:50:53.849Z,99.90
2018-07-24T01:53:23.157Z,99.90
2018-07-24T01:55:52.381Z,99.90
2018-07-24T01:58:21.604Z,99.90
2018-07-24T02:00:50.864Z,99.90
2018-07-24T02:03:20.147Z,99.90
2018-07-24T02:05:49.425Z,99.90
2018-07-24T02:08:18.639Z,99.90
2018-07-24T02:10:47.888Z,99.90
2018-07-24T02:13:17.109Z,99.90
2018-07-24T02:15:46.452Z,99.90
2018-07-24T02:18:15.729Z,99.90
2018-07-24T02:20:45.014Z,99.90
2018-07-24T02:23:14.248Z,99.90
2018-07-24T02:25:43.498Z,99.90
2018-07-24T02:28:12.717Z,99.90
2018-07-24T02:30:42.092Z,99.90
2018-07-24T02:33:11.349Z,99.90
2018-07-24T02:35:40.622Z,99.90
2018-07-24T02:38:09.857Z,99.90
2018-07-24T02:40:39.127Z,99.90
2018-07-24T02:43:08.468Z,99.90
2018-07-24T02:45:37.677Z,99.90
2018-07-24T02:48:06.920Z,99.90
2018-07-24T02:50:36.148Z,99.90
2018-07-24T02:53:05.439Z,99.90
2018-07-24T02:55:34.697Z,99.90
2018-07-24T02:58:03.920Z,99.90
2018-07-24T03:00:38.595Z,99.90
2018-07-24T03:03:07.823Z,99.90
2018-07-24T03:05:37.041Z,99.90
2018-07-24T03:08:06.345Z,99.90
2018-07-24T03:10:35.674Z,99.90
2018-07-24T03:13:04.913Z,99.90
2018-07-24T03:15:34.121Z,99.90
2018-07-24T03:18:03.379Z,99.90
2018-07-24T03:20:32.598Z,99.90
2018-07-24T03:23:01.821Z,99.90
2018-07-24T03:25:31.067Z,99.90
2018-07-24T03:28:00.303Z,99.90
2018-07-24T03:30:29.522Z,99.90
2018-07-24T03:32:58.841Z,99.90
2018-07-24T03:35:28.088Z,99.90
2018-07-24T03:37:57.400Z,99.90
2018-07-24T03:40:26.628Z,99.90
2018-07-24T03:42:55.901Z,99.90
2018-07-24T03:45:25.296Z,99.90
2018-07-24T03:47:54.545Z,99.90
2018-07-24T03:50:23.896Z,99.90
2018-07-24T03:52:53.219Z,99.90
2018-07-24T03:55:22.654Z,99.90
2018-07-24T03:57:52.011Z,99.90
2018-07-24T04:02:50.485Z,99.90
2018-07-24T04:05:19.814Z,99.90
2018-07-24T04:07:50.569Z,99.90
2018-07-24T04:10:21.169Z,99.90
2018-07-24T04:12:50.711Z,99.90
2018-07-24T04:15:19.970Z,99.90
2018-07-24T04:17:49.305Z,99.90
2018-07-24T04:20:18.637Z,99.90
2018-07-24T04:22:47.964Z,99.90
2018-07-24T04:25:17.321Z,99.90
2018-07-24T04:27:46.613Z,99.90
2018-07-24T04:30:15.949Z,99.90
2018-07-24T04:32:45.224Z,99.90
2018-07-24T04:35:14.503Z,99.90
2018-07-24T04:37:43.811Z,99.90
2018-07-24T04:42:41.983Z,99.90
2018-07-24T04:45:11.285Z,99.90
2018-07-24T04:47:40.588Z,99.90
2018-07-24T04:50:09.823Z,99.90
2018-07-24T04:52:39.110Z,99.90
2018-07-24T04:55:08.329Z,99.90
2018-07-24T04:57:37.571Z,99.90
2018-07-24T05:00:07.360Z,99.90
2018-07-24T05:02:36.708Z,99.90
2018-07-24T05:05:05.967Z,99.90
2018-07-24T05:07:35.967Z,99.90
2018-07-24T05:10:05.813Z,99.90
2018-07-24T05:12:35.057Z,99.90
2018-07-24T05:15:04.936Z,99.90
2018-07-24T05:17:35.100Z,99.90
2018-07-24T05:20:04.457Z,99.90
2018-07-24T05:22:34.758Z,99.90
2018-07-24T05:25:04.093Z,99.90
2018-07-24T05:27:33.351Z,99.90
2018-07-24T05:30:02.641Z,99.90
2018-07-24T05:32:31.937Z,99.90
2018-07-24T05:35:01.269Z,99.90
2018-07-24T05:37:30.558Z,99.90
2018-07-24T05:39:59.836Z,99.90
2018-07-24T05:42:29.114Z,99.90
2018-07-24T05:44:58.589Z,99.90
2018-07-24T05:47:27.845Z,99.90
2018-07-24T05:49:57.235Z,99.90
2018-07-24T05:52:26.506Z,99.90
2018-07-24T05:54:55.829Z,99.90
2018-07-24T05:57:25.158Z,99.90
2018-07-24T05:59:54.398Z,99.90
2018-07-24T06:02:23.745Z,99.90
2018-07-24T06:04:53.036Z,99.90
2018-07-24T06:07:22.305Z,99.90
2018-07-24T06:09:51.646Z,99.90
2018-07-24T06:12:20.955Z,99.90
2018-07-24T06:14:50.323Z,99.90
2018-07-24T06:17:19.659Z,99.90
2018-07-24T06:19:48.942Z,99.90
2018-07-24T06:22:18.324Z,99.90
2018-07-24T06:24:47.624Z,99.90
2018-07-24T06:27:17.018Z,99.90
2018-07-24T06:29:46.303Z,99.90
2018-07-24T06:32:15.568Z,99.90
2018-07-24T06:34:44.903Z,99.90
2018-07-24T06:37:14.192Z,99.90
2018-07-24T06:39:43.835Z,99.90
2018-07-24T06:42:13.152Z,99.90
2018-07-24T06:44:42.802Z,99.90
2018-07-24T06:47:12.076Z,99.90
2018-07-24T06:49:41.389Z,99.90
2018-07-24T06:52:10.814Z,99.90
2018-07-24T06:57:10.443Z,99.90
2018-07-24T06:59:39.876Z,99.90
2018-07-24T07:02:09.278Z,99.90
2018-07-24T07:04:38.776Z,99.90
2018-07-24T07:07:08.293Z,99.90
2018-07-24T07:09:37.577Z,99.90
2018-07-24T07:12:07.141Z,99.90
2018-07-24T07:14:36.559Z,99.90
2018-07-24T07:17:06.044Z,99.90
2018-07-24T07:19:35.306Z,99.90
2018-07-24T07:22:04.847Z,99.90
2018-07-24T07:24:34.327Z,99.90
2018-07-24T07:27:03.717Z,99.90
2018-07-24T07:29:33.098Z,99.90
2018-07-24T07:32:02.483Z,99.90
2018-07-24T07:34:31.794Z,99.90
2018-07-24T07:37:01.136Z,99.90
2018-07-24T07:39:30.583Z,99.90
2018-07-24T07:41:59.846Z,99.90
2018-07-24T07:44:29.151Z,99.90
2018-07-24T07:46:58.407Z,99.90
2018-07-24T07:49:27.642Z,99.90
2018-07-24T07:51:56.951Z,99.90
2018-07-24T07:54:26.339Z,99.90
2018-07-24T07:56:55.623Z,99.90
2018-07-24T07:59:24.978Z,99.90
2018-07-24T08:01:54.302Z,99.90
2018-07-24T08:04:24.516Z,99.90
2018-07-24T08:06:53.825Z,99.90
2018-07-24T08:09:23.236Z,99.90
2018-07-24T08:11:52.480Z,99.90
2018-07-24T08:14:21.817Z,99.90
2018-07-24T08:16:51.355Z,99.90
2018-07-24T08:19:20.660Z,99.90
2018-07-24T08:21:50.102Z,99.90
2018-07-24T08:24:19.388Z,99.90
2018-07-24T08:26:48.710Z,99.90
2018-07-24T08:29:18.156Z,99.90
2018-07-24T08:31:47.448Z,99.90
2018-07-24T08:34:16.803Z,99.90
2018-07-24T08:36:46.106Z,99.90
2018-07-24T08:39:15.454Z,99.90
2018-07-24T08:41:45.049Z,99.90
2018-07-24T08:44:14.442Z,99.90
2018-07-24T08:46:43.751Z,99.90
2018-07-24T08:49:13.247Z,99.90
2018-07-24T08:51:42.557Z,99.90
2018-07-24T08:54:12.131Z,99.90
2018-07-24T08:56:41.519Z,99.90
2018-07-24T08:59:10.801Z,99.90
2018-07-24T09:01:40.281Z,99.90
2018-07-24T09:04:09.922Z,99.90
2018-07-24T09:06:39.696Z,99.90
2018-07-24T09:09:11.028Z,99.90
2018-07-24T09:11:41.091Z,99.90
2018-07-24T09:14:14.209Z,99.90
2018-07-24T09:16:43.714Z,99.90
2018-07-24T09:19:13.078Z,99.90
2018-07-24T09:21:42.713Z,99.90
2018-07-24T09:24:12.070Z,99.90
2018-07-24T09:26:41.698Z,99.90
2018-07-24T09:29:11.152Z,99.90
2018-07-24T09:31:40.531Z,99.90
2018-07-24T09:34:09.908Z,99.90
2018-07-24T09:36:39.284Z,99.90
2018-07-24T09:39:09.685Z,99.90
2018-07-24T09:41:39.320Z,99.90
2018-07-24T09:44:08.683Z,99.90
2018-07-24T09:46:38.124Z,99.90
2018-07-24T09:49:07.523Z,99.90
2018-07-24T09:51:37.006Z,99.90
2018-07-24T09:54:06.410Z,99.90
2018-07-24T09:56:35.951Z,99.90
2018-07-24T09:59:12.490Z,99.90
2018-07-24T10:01:41.910Z,99.90
2018-07-24T10:04:11.363Z,99.90
2018-07-24T10:06:40.688Z,99.90
2018-07-24T10:09:10.835Z,99.90
2018-07-24T10:11:40.278Z,99.90
2018-07-24T10:14:10.611Z,99.90
2018-07-24T10:16:40.224Z,99.90
2018-07-24T10:19:09.390Z,99.90
2018-07-24T10:21:38.734Z,99.90
2018-07-24T10:24:08.112Z,99.90
2018-07-24T10:26:37.494Z,99.90
2018-07-24T10:29:06.893Z,99.90
2018-07-24T10:31:36.246Z,99.90
2018-07-24T10:34:05.660Z,99.90
2018-07-24T10:36:35.019Z,99.90
2018-07-24T10:39:06.999Z,99.90
2018-07-24T10:41:36.295Z,99.90
2018-07-24T10:44:05.610Z,99.90
2018-07-24T10:46:35.089Z,99.90
2018-07-24T10:49:04.418Z,99.90
2018-07-24T10:51:33.851Z,99.90
2018-07-24T10:54:03.316Z,99.90
2018-07-24T10:56:33.269Z,99.90
2018-07-24T10:59:02.753Z,99.90
2018-07-24T11:01:33.232Z,99.90
2018-07-24T11:04:02.629Z,99.90
2018-07-24T11:06:32.071Z,99.90
2018-07-24T11:09:01.595Z,99.90
2018-07-24T11:11:31.059Z,99.90
2018-07-24T11:14:00.368Z,99.90
2018-07-24T11:16:29.762Z,99.90
2018-07-24T11:18:59.119Z,99.90
2018-07-24T11:21:28.540Z,99.90
2018-07-24T11:23:57.841Z,99.90
2018-07-24T11:26:27.256Z,99.90
2018-07-24T11:28:56.603Z,99.90
2018-07-24T11:31:26.048Z,99.90
2018-07-24T11:33:55.464Z,99.90
2018-07-24T11:36:24.829Z,99.90
2018-07-24T11:38:54.247Z,99.90
2018-07-24T11:41:23.605Z,99.90
2018-07-24T11:43:53.085Z,99.90
2018-07-24T11:46:22.488Z,99.90
2018-07-24T11:48:52.102Z,99.90
2018-07-24T11:51:21.452Z,99.90
2018-07-24T11:53:50.844Z,99.90
2018-07-24T11:56:20.208Z,99.90
2018-07-24T11:58:49.688Z,99.90
2018-07-24T12:01:19.271Z,99.90
2018-07-24T12:03:49.038Z,99.90
2018-07-24T12:06:18.559Z,99.90
2018-07-24T12:08:47.951Z,99.90
2018-07-24T12:11:17.537Z,99.90
2018-07-24T12:13:46.872Z,99.90
2018-07-24T12:16:16.327Z,99.90
2018-07-24T12:18:45.662Z,99.90
2018-07-24T12:21:15.107Z,99.90
2018-07-24T12:23:44.729Z,99.90
2018-07-24T12:26:15.246Z,99.90
2018-07-24T12:28:44.763Z,99.90
2018-07-24T12:31:14.156Z,99.90
2018-07-24T12:33:43.649Z,99.90
2018-07-24T12:36:13.137Z,99.90
2018-07-24T12:38:42.646Z,99.90
2018-07-24T12:41:12.073Z,99.90
2018-07-24T12:43:41.545Z,99.90
2018-07-24T12:46:11.065Z,99.90
2018-07-24T12:48:40.429Z,99.90
2018-07-24T12:51:09.912Z,99.90
2018-07-24T12:53:39.384Z,99.90
2018-07-24T12:56:08.704Z,98.80
2018-07-24T12:58:38.019Z,99.90
2018-07-24T13:01:07.510Z,98.60
2018-07-24T13:03:37.003Z,99.50
2018-07-24T13:06:06.900Z,98.30
2018-07-24T13:08:36.234Z,98.90
2018-07-24T13:11:05.650Z,99.50
2018-07-24T13:13:34.908Z,99.30
2018-07-24T13:16:04.266Z,99.20
2018-07-24T13:18:33.686Z,98.40
2018-07-24T13:21:02.954Z,98.30
2018-07-24T13:23:32.340Z,97.90
2018-07-24T13:26:01.809Z,99.20
2018-07-24T13:28:31.179Z,99.20
2018-07-24T13:31:00.603Z,99.80
2018-07-24T13:33:31.481Z,99.00
2018-07-24T13:36:01.053Z,98.40
2018-07-24T13:38:30.350Z,99.40
2018-07-24T13:40:59.786Z,97.60
2018-07-24T13:43:29.102Z,97.80
2018-07-24T13:45:58.631Z,97.60
2018-07-24T13:48:28.218Z,98.00
2018-07-24T13:50:57.716Z,97.90
2018-07-24T13:53:27.147Z,96.50
2018-07-24T13:55:56.493Z,94.40
2018-07-24T13:58:25.869Z,95.80
2018-07-24T14:00:55.430Z,94.70
2018-07-24T14:03:24.866Z,95.30
2018-07-24T14:05:54.415Z,95.80
2018-07-24T14:08:23.805Z,95.50
2018-07-24T14:10:53.126Z,96.10
2018-07-24T14:13:22.607Z,94.60
2018-07-24T14:15:52.263Z,94.90
2018-07-24T14:18:21.882Z,96.60
2018-07-24T14:20:51.700Z,95.10
2018-07-24T14:23:21.256Z,94.30
2018-07-24T14:25:50.898Z,94.70
2018-07-24T14:28:20.505Z,94.00
2018-07-24T14:30:50.017Z,93.20
2018-07-24T14:33:19.385Z,94.20
2018-07-24T14:35:48.918Z,93.60
2018-07-24T14:38:18.313Z,94.20
2018-07-24T14:40:48.651Z,93.50
2018-07-24T14:43:18.454Z,93.70
2018-07-24T14:45:48.027Z,93.10
2018-07-24T14:48:17.486Z,93.80
2018-07-24T14:50:46.926Z,92.20
2018-07-24T14:53:16.269Z,91.90
2018-07-24T14:55:45.725Z,92.50
2018-07-24T14:58:15.079Z,92.20
2018-07-24T15:00:45.397Z,92.20
2018-07-24T15:03:14.804Z,92.30
2018-07-24T15:05:44.276Z,91.70
2018-07-24T15:08:13.703Z,92.00
2018-07-24T15:10:43.036Z,91.10
2018-07-24T15:13:12.413Z,90.80
2018-07-24T15:15:41.742Z,90.50
2018-07-24T15:18:11.326Z,89.30
2018-07-24T15:20:40.751Z,90.60
2018-07-24T15:23:10.148Z,91.10
2018-07-24T15:25:39.844Z,90.20
2018-07-24T15:28:09.327Z,90.30
2018-07-24T15:30:38.720Z,89.80
2018-07-24T15:33:08.150Z,90.30
2018-07-24T15:35:37.883Z,87.70
2018-07-24T15:38:07.712Z,87.20
2018-07-24T15:40:37.117Z,87.00
2018-07-24T15:43:07.571Z,89.20
2018-07-24T15:45:37.656Z,87.60
2018-07-24T15:48:07.278Z,88.40
2018-07-24T15:50:36.678Z,89.40
2018-07-24T15:53:06.256Z,88.20
2018-07-24T15:55:36.714Z,87.90
2018-07-24T15:58:07.223Z,88.80
2018-07-24T16:00:36.586Z,89.30
2018-07-24T16:03:06.413Z,88.70
2018-07-24T16:05:36.176Z,88.90
2018-07-24T16:08:06.097Z,87.60
2018-07-24T16:10:35.519Z,87.00
2018-07-24T16:13:05.360Z,85.80
2018-07-24T16:15:34.985Z,85.80
2018-07-24T16:18:04.421Z,84.50
2018-07-24T16:20:33.974Z,86.40
2018-07-24T16:23:03.486Z,87.60
2018-07-24T16:25:33.110Z,85.40
2018-07-24T16:28:02.615Z,84.50
2018-07-24T16:30:32.117Z,85.50
2018-07-24T16:33:01.680Z,85.40
2018-07-24T16:35:31.098Z,84.60
2018-07-24T16:38:00.538Z,85.50
2018-07-24T16:40:29.870Z,86.80
2018-07-24T16:42:59.243Z,88.50
2018-07-24T16:45:28.634Z,89.50
2018-07-24T16:47:57.918Z,90.50
2018-07-24T16:50:27.296Z,91.10
2018-07-24T16:52:56.620Z,91.30
2018-07-24T16:55:26.045Z,92.10
2018-07-24T16:57:55.355Z,92.40
2018-07-24T17:00:25.823Z,92.70
2018-07-24T17:02:55.337Z,92.20
2018-07-24T17:05:24.624Z,92.00
2018-07-24T17:07:54.079Z,92.50
2018-07-24T17:10:23.543Z,92.30
2018-07-24T17:12:52.942Z,92.50
2018-07-24T17:15:22.298Z,92.70
2018-07-24T17:17:51.739Z,92.40
2018-07-24T17:20:21.194Z,92.40
2018-07-24T17:22:50.609Z,92.50
2018-07-24T17:25:19.990Z,92.40
2018-07-24T17:27:49.456Z,92.90
2018-07-24T17:30:18.772Z,93.00
2018-07-24T17:32:48.100Z,92.40
2018-07-24T17:35:17.450Z,92.70
2018-07-24T17:37:46.784Z,93.80
2018-07-24T17:40:16.130Z,94.90
2018-07-24T17:42:45.634Z,95.10
2018-07-24T17:45:14.952Z,95.30
2018-07-24T17:47:44.297Z,95.50
2018-07-24T17:50:13.813Z,95.90
2018-07-24T17:52:43.228Z,96.20
2018-07-24T17:55:12.541Z,96.20
2018-07-24T17:57:42.210Z,96.10
2018-07-24T18:00:11.557Z,95.60
2018-07-24T18:02:40.877Z,95.90
2018-07-24T18:05:10.425Z,95.30
2018-07-24T18:07:39.952Z,95.00
2018-07-24T18:10:09.595Z,95.00
2018-07-24T18:12:39.248Z,94.80
2018-07-24T18:15:08.531Z,94.70
2018-07-24T18:17:38.071Z,94.40
2018-07-24T18:20:07.693Z,94.20
2018-07-24T18:22:39.180Z,94.70
2018-07-24T18:25:08.968Z,95.10
2018-07-24T18:27:38.252Z,96.00
2018-07-24T18:30:07.645Z,96.60
2018-07-24T18:32:38.036Z,96.70
2018-07-24T18:35:07.662Z,97.20
2018-07-24T18:37:36.976Z,98.20
2018-07-24T18:40:06.452Z,99.00
2018-07-24T18:42:36.262Z,99.40
2018-07-24T18:45:06.193Z,99.90
2018-07-24T18:47:35.634Z,99.90
2018-07-24T18:50:05.110Z,99.90
2018-07-24T18:52:34.455Z,99.90
2018-07-24T18:55:03.728Z,99.90
2018-07-24T18:57:33.467Z,99.90
2018-07-24T19:00:02.897Z,99.90
2018-07-24T19:02:32.247Z,99.90
2018-07-24T19:05:01.800Z,99.90
2018-07-24T19:07:31.390Z,99.90
2018-07-24T19:10:01.259Z,99.90
2018-07-24T19:12:31.674Z,99.90
2018-07-24T19:15:01.374Z,99.90
2018-07-24T19:17:31.209Z,99.90
2018-07-24T19:20:00.573Z,99.90
2018-07-24T19:22:29.926Z,99.90
2018-07-24T19:24:59.323Z,99.90
2018-07-24T19:27:28.609Z,99.90
2018-07-24T19:29:57.938Z,99.90
2018-07-24T19:32:27.365Z,99.90
2018-07-24T19:34:56.804Z,99.90
2018-07-24T19:37:26.145Z,99.90
2018-07-24T19:39:55.418Z,99.90
2018-07-24T19:42:24.885Z,99.90
2018-07-24T19:44:54.206Z,99.90
2018-07-24T19:47:23.593Z,99.90
2018-07-24T19:49:52.988Z,99.90
2018-07-24T19:52:22.361Z,99.90
2018-07-24T19:54:51.618Z,99.90
2018-07-24T19:57:20.960Z,99.90
2018-07-24T19:59:50.250Z,99.90
2018-07-24T20:02:19.655Z,99.90
2018-07-24T20:04:48.901Z,99.90
2018-07-24T20:07:18.225Z,99.90
2018-07-24T20:09:49.873Z,99.90
2018-07-24T20:12:19.928Z,99.90
2018-07-24T20:14:49.444Z,99.90
2018-07-24T20:17:19.036Z,99.90
2018-07-24T20:19:48.395Z,99.90
2018-07-24T20:22:18.067Z,99.90
2018-07-24T20:24:47.372Z,99.90
2018-07-24T20:27:16.769Z,99.90
2018-07-24T20:29:46.073Z,99.90
2018-07-24T20:32:15.426Z,99.90
2018-07-24T20:34:44.811Z,99.90
2018-07-24T20:37:14.149Z,99.90
2018-07-24T20:39:43.472Z,99.90
2018-07-24T20:42:12.798Z,99.90
2018-07-24T20:44:42.186Z,99.90
2018-07-24T20:47:11.609Z,99.90
2018-07-24T20:49:41.243Z,99.90
2018-07-24T20:52:10.701Z,99.90
2018-07-24T20:54:40.076Z,99.90
2018-07-24T20:57:09.482Z,99.90
2018-07-24T20:59:38.722Z,99.90
2018-07-24T21:02:08.024Z,99.90
2018-07-24T21:04:37.306Z,99.90
2018-07-24T21:07:06.621Z,99.90
2018-07-24T21:09:36.057Z,99.90
2018-07-24T21:12:05.310Z,99.90
2018-07-24T21:14:35.050Z,99.90
2018-07-24T21:17:04.467Z,99.90
2018-07-24T21:19:33.789Z,99.90
2018-07-24T21:22:03.313Z,99.90
2018-07-24T21:24:32.740Z,99.90
2018-07-24T21:27:02.050Z,99.90
2018-07-24T21:29:31.477Z,99.90
2018-07-24T21:32:00.791Z,99.90
2018-07-24T21:34:30.157Z,99.90
2018-07-24T21:36:59.469Z,99.90
2018-07-24T21:39:28.770Z,99.90
2018-07-24T21:41:58.184Z,99.90
2018-07-24T21:44:27.483Z,99.90
2018-07-24T21:46:56.991Z,99.90
2018-07-24T21:49:26.336Z,99.90
2018-07-24T21:51:56.054Z,99.90
2018-07-24T21:54:25.509Z,99.90
2018-07-24T21:56:54.866Z,99.90
2018-07-24T21:59:24.171Z,99.90
2018-07-24T22:01:53.581Z,99.90
2018-07-24T22:04:22.823Z,99.90
2018-07-24T22:06:52.325Z,99.90
2018-07-24T22:09:21.769Z,99.90
2018-07-24T22:11:51.131Z,99.90
2018-07-24T22:14:20.597Z,99.90
2018-07-24T22:16:50.234Z,99.90
2018-07-24T22:19:19.925Z,99.90
2018-07-24T22:21:49.370Z,99.90
2018-07-24T22:24:18.613Z,99.90
2018-07-24T22:26:48.129Z,99.90
2018-07-24T22:29:17.557Z,99.90
2018-07-24T22:31:46.962Z,99.90
2018-07-24T22:34:16.349Z,99.90
2018-07-24T22:36:45.821Z,99.90
2018-07-24T22:39:15.237Z,99.90
2018-07-24T22:41:44.729Z,99.90
2018-07-24T22:44:14.044Z,99.90
2018-07-24T22:46:43.388Z,99.90
2018-07-24T22:49:12.710Z,99.90
2018-07-24T22:51:42.108Z,99.90
2018-07-24T22:54:11.468Z,99.90
2018-07-24T22:56:40.867Z,99.90
2018-07-24T22:59:10.069Z,99.90
2018-07-24T23:01:39.463Z,99.90
2018-07-24T23:04:08.794Z,99.90
2018-07-24T23:06:38.103Z,99.90
2018-07-24T23:09:09.196Z,99.90
2018-07-24T23:11:39.042Z,99.90
2018-07-24T23:14:08.441Z,99.90
2018-07-24T23:16:37.818Z,99.90
2018-07-24T23:19:07.045Z,99.90
2018-07-24T23:21:36.566Z,99.90
2018-07-24T23:24:05.901Z,99.90
2018-07-24T23:26:35.366Z,99.90
2018-07-24T23:29:04.753Z,99.90
2018-07-24T23:31:34.222Z,99.90
2018-07-24T23:34:03.481Z,99.90
2018-07-24T23:36:32.884Z,99.90
2018-07-24T23:39:02.212Z,99.90
2018-07-24T23:41:31.655Z,99.90
2018-07-24T23:44:01.009Z,99.90
2018-07-24T23:46:30.347Z,99.90
2018-07-24T23:48:59.822Z,99.90
2018-07-24T23:51:29.188Z,99.90
2018-07-24T23:53:58.516Z,99.90
2018-07-24T23:56:27.789Z,99.90
2018-07-24T23:58:57.041Z,99.90
